Time;durP1;ratioP1;P1;durP2;ratioP2;P2;SDS_P1;SDS_P2;PMS_P1;PMS_P2;Temp;Humidity;BMP_temperature;BMP_pressure;BME280_temperature;BME280_humidity;BME280_pressure;Samples;Min_cycle;Max_cycle;Signal;HPM_P1;HPM_P2
2022/01/26 00:07:05;;;;;;;20.00;8.60;;;;;;;5.14;98.90;102861.66;5007648;28;20040;-78
2022/01/26 00:09:30;;;;;;;21.55;8.60;;;;;;;5.13;98.74;102855.53;5007498;28;20238;-79
2022/01/26 00:11:56;;;;;;;19.67;8.60;;;;;;;5.15;98.39;102853.53;4995955;28;20026;-78
2022/01/26 00:14:21;;;;;;;19.70;9.20;;;;;;;5.15;98.56;102853.53;5008051;28;20264;-79
2022/01/26 00:16:47;;;;;;;20.58;9.02;;;;;;;5.16;97.85;102854.38;5006625;28;20092;-78
2022/01/26 00:19:20;;;;;;;22.05;9.23;;;;;;;5.13;98.58;102850.22;4984937;28;20113;-79
2022/01/26 00:21:52;;;;;;;22.05;9.23;;;;;;;5.13;98.41;102850.22;5006842;28;20500;-79
2022/01/26 00:29:20;;;;;;;21.45;9.13;;;;;;;5.14;98.25;102849.22;5003181;28;20029;-79
2022/01/26 00:40:08;;;;;;;17.65;8.25;;;;;;;5.16;98.50;102852.53;5003777;28;20044;-79
2022/01/26 00:42:38;;;;;;;17.80;8.35;;;;;;;5.13;97.95;102847.56;5004840;28;20109;-80
2022/01/26 00:45:04;;;;;;;19.58;8.45;;;;;;;5.10;98.82;102839.06;5005147;28;21000;-78
2022/01/26 00:47:30;;;;;;;20.20;7.93;;;;;;;5.04;98.98;102842.38;4986965;28;20820;-79
2022/01/26 00:50:00;;;;;;;17.00;7.82;;;;;;;5.02;99.30;102841.69;5001212;28;20026;-78
2022/01/26 00:52:37;;;;;;;18.17;8.48;;;;;;;5.07;99.27;102842.88;5003241;28;20052;-78
2022/01/26 00:55:04;;;;;;;17.20;7.82;;;;;;;5.08;99.08;102841.06;4989346;28;20022;-78
2022/01/26 00:57:30;;;;;;;18.40;8.32;;;;;;;5.11;99.28;102840.75;5006471;28;20093;-79
2022/01/26 00:59:57;;;;;;;22.45;9.25;;;;;;;5.08;98.95;102839.25;5006426;28;20125;-77
2022/01/26 01:02:23;;;;;;;19.98;9.18;;;;;;;5.08;99.18;102833.91;5004609;28;20026;-76
2022/01/26 01:04:48;;;;;;;22.48;9.07;;;;;;;5.05;99.16;102844.88;5002498;28;20039;-76
2022/01/26 01:07:19;;;;;;;21.35;8.95;;;;;;;5.04;99.38;102840.56;5005261;28;20032;-76
2022/01/26 01:09:44;;;;;;;19.50;8.75;;;;;;;5.12;98.69;102845.88;5005668;28;20032;-76
2022/01/26 01:12:11;;;;;;;21.50;8.52;;;;;;;5.12;98.52;102845.06;4989067;28;20478;-76
2022/01/26 01:14:39;;;;;;;20.98;8.55;;;;;;;5.07;98.73;102845.53;5004885;28;20024;-76
2022/01/26 01:17:06;;;;;;;19.88;8.45;;;;;;;5.04;98.91;102840.56;5004437;28;20034;-76
2022/01/26 01:19:43;;;;;;;22.42;9.57;;;;;;;5.15;98.14;102840.25;5005762;28;20369;-76
2022/01/26 01:27:54;;;;;;;16.88;7.88;;;;;;;5.20;97.85;102822.97;5010745;28;20033;-76
2022/01/26 01:33:03;;;;;;;21.38;7.82;;;;;;;5.16;97.89;102815.34;5006592;28;20022;-76
2022/01/26 01:35:30;;;;;;;18.20;7.50;;;;;;;5.13;97.76;102813.00;4991826;28;20025;-76
2022/01/26 01:37:56;;;;;;;18.25;7.20;;;;;;;5.13;97.87;102807.69;4992096;28;20061;-76
2022/01/26 01:40:22;;;;;;;21.02;8.00;;;;;;;5.20;97.61;102807.03;5007316;28;20060;-76
2022/01/26 01:42:47;;;;;;;16.70;7.85;;;;;;;5.20;97.50;102804.38;5003910;28;20595;-76
2022/01/26 01:45:13;;;;;;;19.38;8.60;;;;;;;5.16;97.92;102801.22;5007321;28;20025;-76
2022/01/26 01:47:38;;;;;;;20.02;7.97;;;;;;;5.11;98.11;102796.41;5008882;28;20076;-76
2022/01/26 01:50:10;;;;;;;17.75;7.43;;;;;;;5.16;97.40;102798.56;4990676;28;21043;-76
2022/01/26 01:52:36;;;;;;;14.55;7.43;;;;;;;5.15;97.55;102800.38;4994778;28;20017;-76
2022/01/26 01:55:04;;;;;;;16.73;7.88;;;;;;;5.13;97.45;102791.75;4990829;28;20113;-76
2022/01/26 01:57:30;;;;;;;17.63;7.60;;;;;;;5.12;97.52;102792.75;5010209;28;20080;-76
2022/01/26 01:59:55;;;;;;;21.70;8.45;;;;;;;5.10;97.52;102792.06;5009242;28;20037;-76
2022/01/26 02:02:21;;;;;;;13.60;7.03;;;;;;;5.11;97.44;102793.75;4999266;28;20400;-76
2022/01/26 02:04:46;;;;;;;17.88;7.20;;;;;;;5.08;97.30;102794.06;4992244;28;20138;-76
2022/01/26 02:07:13;;;;;;;17.67;7.40;;;;;;;5.07;97.62;102797.72;5009026;28;20036;-76
2022/01/26 02:09:38;;;;;;;14.85;7.05;;;;;;;5.05;97.46;102796.22;5003429;28;20041;-76
2022/01/26 02:12:16;;;;;;;16.15;7.32;;;;;;;5.02;97.30;102793.88;5006302;28;20029;-75
2022/01/26 02:14:48;;;;;;;18.00;6.45;;;;;;;4.99;97.87;102789.72;5005187;28;20083;-76
2022/01/26 02:49:47;;;;;;;18.27;7.10;;;;;;;4.92;97.97;102799.31;5002584;28;20057;-76
2022/01/26 03:04:53;;;;;;;14.25;5.88;;;;;;;4.83;98.54;102789.66;5005984;28;20038;-76
2022/01/26 03:07:26;;;;;;;14.93;7.00;;;;;;;4.83;98.55;102785.16;5008544;28;20036;-76
2022/01/26 03:10:02;;;;;;;18.85;6.70;;;;;;;4.83;98.66;102784.34;4992383;28;20026;-77
2022/01/26 03:12:40;;;;;;;15.55;7.13;;;;;;;4.84;98.61;102781.50;4990050;28;20022;-77
2022/01/26 03:15:15;;;;;;;12.82;6.00;;;;;;;4.86;98.32;102781.38;5001889;28;20049;-77
2022/01/26 03:20:24;;;;;;;14.93;5.57;;;;;;;4.85;98.78;102790.34;5003446;28;20017;-77
2022/01/26 03:28:26;;;;;;;15.70;7.35;;;;;;;4.83;98.67;102779.84;4999190;28;20072;-77
2022/01/26 03:36:13;;;;;;;17.38;6.63;;;;;;;4.78;98.69;102782.16;5007424;28;20032;-77
2022/01/26 03:38:44;;;;;;;15.35;6.32;;;;;;;4.74;98.99;102780.84;5005729;28;20064;-77
2022/01/26 03:41:32;;;;;;;15.52;6.50;;;;;;;4.75;98.73;102781.66;4982765;28;20025;-77
2022/01/26 03:43:57;;;;;;;13.80;6.22;;;;;;;4.75;98.67;102782.50;5000782;28;20038;-77
2022/01/26 03:46:23;;;;;;;14.95;6.07;;;;;;;4.80;98.09;102776.69;4990300;28;20407;-77
2022/01/26 03:48:48;;;;;;;14.20;5.78;;;;;;;4.83;98.16;102773.72;5007626;28;20439;-77
2022/01/26 03:51:14;;;;;;;11.75;6.50;;;;;;;4.80;98.00;102774.03;5006627;28;20087;-77
2022/01/26 03:53:39;;;;;;;14.15;6.10;;;;;;;4.70;98.15;102768.03;5004264;28;20057;-77
2022/01/26 03:56:05;;;;;;;10.90;5.35;;;;;;;4.77;98.54;102766.41;5002199;28;20068;-77
2022/01/26 03:58:30;;;;;;;13.18;6.43;;;;;;;4.76;98.25;102778.00;5007103;28;20026;-77
2022/01/26 04:00:56;;;;;;;11.48;5.97;;;;;;;4.74;98.46;102770.22;5004776;28;20049;-77
2022/01/26 04:03:21;;;;;;;12.88;6.03;;;;;;;4.67;98.86;102769.19;4986131;28;20356;-76
2022/01/26 04:05:47;;;;;;;12.02;5.22;;;;;;;4.71;98.15;102765.22;5004708;28;20033;-76
2022/01/26 04:08:19;;;;;;;13.98;5.50;;;;;;;4.76;98.00;102767.38;4985113;28;20435;-76
2022/01/26 04:13:10;;;;;;;10.45;4.68;;;;;;;4.74;97.49;102769.38;5004001;28;20041;-77
2022/01/26 04:15:37;;;;;;;11.05;5.22;;;;;;;4.68;97.24;102760.25;4994607;28;20439;-76
2022/01/26 04:18:04;;;;;;;11.38;4.60;;;;;;;4.68;97.54;102759.41;4992870;28;20018;-76
2022/01/26 04:20:35;;;;;;;9.45;4.97;;;;;;;4.58;97.77;102759.53;4986720;28;20077;-76
2022/01/26 04:25:32;;;;;;;8.25;4.25;;;;;;;4.68;98.11;102762.06;5007269;28;21698;-76
2022/01/26 04:28:03;;;;;;;11.05;4.90;;;;;;;4.62;98.32;102758.19;4989792;28;20038;-76
2022/01/26 04:30:29;;;;;;;10.68;4.45;;;;;;;4.64;97.98;102742.09;4989658;28;20018;-76
2022/01/26 04:32:59;;;;;;;10.60;4.85;;;;;;;4.59;98.17;102749.72;5005421;28;20049;-76
2022/01/26 04:35:25;;;;;;;13.10;5.85;;;;;;;4.64;97.97;102740.28;4988077;28;20121;-76
2022/01/26 04:40:41;;;;;;;14.48;5.68;;;;;;;4.59;98.05;102741.75;5004186;28;20133;-76
2022/01/26 04:43:14;;;;;;;13.50;6.10;;;;;;;4.64;97.82;102748.25;4989893;28;20026;-76
2022/01/26 04:45:40;;;;;;;13.38;6.05;;;;;;;4.63;97.57;102737.78;4982590;28;20629;-76
2022/01/26 04:48:05;;;;;;;15.88;7.30;;;;;;;4.63;97.65;102746.59;4989293;28;20030;-76
2022/01/26 04:50:31;;;;;;;13.40;7.35;;;;;;;4.65;97.16;102741.13;5005909;28;20096;-77
2022/01/26 04:52:56;;;;;;;13.75;6.82;;;;;;;4.65;96.50;102733.16;5002822;28;20117;-76
2022/01/26 04:55:22;;;;;;;13.65;7.22;;;;;;;4.64;96.36;102732.31;5002260;28;20040;-76
2022/01/26 04:57:47;;;;;;;15.52;7.05;;;;;;;4.63;96.09;102735.13;5011000;28;20105;-76
2022/01/26 05:00:13;;;;;;;16.70;7.45;;;;;;;4.58;96.34;102732.97;4992268;28;20029;-76
2022/01/26 05:02:39;;;;;;;14.93;7.25;;;;;;;4.57;96.00;102741.09;4995897;28;20133;-76
2022/01/26 05:05:04;;;;;;;13.68;6.78;;;;;;;4.60;95.97;102727.50;5003269;28;20037;-76
2022/01/26 05:07:30;;;;;;;14.93;7.22;;;;;;;4.59;95.94;102725.84;4995133;28;20511;-76
2022/01/26 05:09:55;;;;;;;13.32;6.72;;;;;;;4.61;96.06;102737.13;4995379;28;20366;-76
2022/01/26 05:12:21;;;;;;;13.23;6.82;;;;;;;4.54;95.50;102736.94;5006079;28;20021;-76
2022/01/26 05:14:48;;;;;;;15.90;7.45;;;;;;;4.53;95.23;102732.63;4988962;28;20072;-76
2022/01/26 05:17:15;;;;;;;13.70;6.93;;;;;;;4.57;95.49;102728.66;5008620;28;20029;-76
2022/01/26 05:19:41;;;;;;;14.38;7.28;;;;;;;4.54;95.09;102716.53;4993011;28;20518;-76
2022/01/26 05:22:07;;;;;;;15.73;7.93;;;;;;;4.51;95.34;102711.56;4992385;28;20034;-76
2022/01/26 05:24:32;;;;;;;13.45;7.18;;;;;;;4.52;94.92;102713.22;4988538;28;20211;-76
2022/01/26 05:26:58;;;;;;;13.90;7.47;;;;;;;4.49;95.44;102710.06;4986369;28;20535;-76
2022/01/26 05:29:23;;;;;;;14.50;7.40;;;;;;;4.51;94.89;102711.56;4990152;28;20095;-76
2022/01/26 05:31:49;;;;;;;17.20;7.05;;;;;;;4.53;94.71;102712.22;4991899;28;20034;-76
2022/01/26 05:34:15;;;;;;;15.15;7.43;;;;;;;4.50;94.68;102707.22;5006981;28;20548;-76
2022/01/26 05:36:41;;;;;;;13.38;6.97;;;;;;;4.53;94.94;102706.06;5009356;28;20061;-76
2022/01/26 05:39:06;;;;;;;13.50;6.70;;;;;;;4.47;94.49;102701.38;5004488;28;20029;-77
2022/01/26 05:41:32;;;;;;;15.93;8.05;;;;;;;4.51;94.46;102700.94;5009918;28;20500;-76
2022/01/26 05:43:58;;;;;;;15.85;7.63;;;;;;;4.48;94.48;102706.53;5009438;28;20522;-76
2022/01/26 05:46:39;;;;;;;16.23;7.57;;;;;;;4.51;94.43;102700.94;4991652;28;20025;-76
2022/01/26 05:49:05;;;;;;;15.95;7.63;;;;;;;4.50;94.22;102712.53;4992149;28;20947;-76
2022/01/26 05:51:32;;;;;;;13.48;7.05;;;;;;;4.40;93.83;102722.44;5008854;28;20021;-76
2022/01/26 05:53:58;;;;;;;12.68;6.07;;;;;;;4.46;94.46;102718.31;5002528;28;20041;-76
2022/01/26 05:56:24;;;;;;;13.52;6.65;;;;;;;4.43;94.14;102719.47;5009203;28;20718;-76
2022/01/26 05:58:49;;;;;;;12.95;6.20;;;;;;;4.42;94.11;102717.81;4990816;28;20036;-75
2022/01/26 06:01:15;;;;;;;12.00;5.97;;;;;;;4.37;94.31;102712.16;5010530;28;20029;-76
2022/01/26 06:03:40;;;;;;;9.80;5.60;;;;;;;4.38;94.45;102716.47;5005256;28;20508;-75
2022/01/26 06:06:06;;;;;;;14.48;6.05;;;;;;;4.33;94.71;102713.47;5008131;28;20043;-76
2022/01/26 06:08:32;;;;;;;12.48;5.75;;;;;;;4.40;94.49;102713.66;4985725;28;20127;-76
2022/01/26 06:10:59;;;;;;;12.63;6.65;;;;;;;4.40;94.42;102713.66;4986145;28;20092;-76
2022/01/26 06:13:25;;;;;;;11.32;5.85;;;;;;;4.41;94.47;102710.84;5009345;28;20040;-76
2022/01/26 06:15:51;;;;;;;11.00;5.57;;;;;;;4.41;94.35;102713.50;4984155;28;20476;-76
2022/01/26 06:18:16;;;;;;;13.65;6.22;;;;;;;4.42;94.61;102704.53;5004731;28;20041;-76
2022/01/26 06:20:42;;;;;;;12.75;6.53;;;;;;;4.38;94.28;102718.28;4983998;28;20029;-76
2022/01/26 06:23:08;;;;;;;10.98;6.05;;;;;;;4.40;94.35;102709.16;4990981;28;20030;-76
2022/01/26 06:25:33;;;;;;;11.63;5.50;;;;;;;4.36;94.26;102705.19;5007462;28;20036;-76
2022/01/26 06:28:01;;;;;;;12.15;5.93;;;;;;;4.35;94.03;102706.16;5007902;28;20041;-76
2022/01/26 06:30:27;;;;;;;11.07;5.90;;;;;;;4.31;94.28;102696.88;4992622;28;20025;-76
2022/01/26 06:32:53;;;;;;;12.98;5.72;;;;;;;4.35;94.15;102705.34;5004107;28;20024;-76
2022/01/26 06:35:19;;;;;;;11.73;6.10;;;;;;;4.32;94.29;102703.84;4990736;28;20026;-76
2022/01/26 06:37:45;;;;;;;13.00;6.20;;;;;;;4.32;94.43;102700.34;5001076;28;20029;-76
2022/01/26 06:40:11;;;;;;;11.40;5.70;;;;;;;4.36;94.07;102697.22;5003425;28;20101;-76
2022/01/26 06:42:50;;;;;;;13.05;6.30;;;;;;;4.34;94.37;102699.19;5005784;28;20487;-76
2022/01/26 06:45:19;;;;;;;14.18;6.80;;;;;;;4.33;94.52;102691.41;5003967;28;20033;-76
2022/01/26 06:50:13;;;;;;;11.18;6.18;;;;;;;4.35;94.53;102682.28;5007265;28;20025;-76
2022/01/26 06:52:38;;;;;;;13.18;6.25;;;;;;;4.35;94.59;102670.84;4991584;28;20025;-76
2022/01/26 06:55:04;;;;;;;12.13;6.07;;;;;;;4.33;94.14;102676.31;5008421;28;20038;-77
2022/01/26 06:57:30;;;;;;;12.43;5.68;;;;;;;4.26;93.93;102680.56;5008535;28;20040;-76
2022/01/26 06:59:55;;;;;;;13.77;6.20;;;;;;;4.29;93.80;102682.91;4992133;28;20089;-77
2022/01/26 07:02:21;;;;;;;12.93;5.53;;;;;;;4.24;94.07;102688.69;4989985;28;20071;-76
2022/01/26 07:04:46;;;;;;;10.40;5.03;;;;;;;4.28;94.07;102691.03;5007480;28;20049;-76
2022/01/26 07:07:12;;;;;;;10.93;5.13;;;;;;;4.29;94.06;102687.38;5006772;28;20032;-76
2022/01/26 07:09:37;;;;;;;10.85;5.43;;;;;;;4.29;93.79;102695.34;4995318;28;20303;-76
2022/01/26 07:12:03;;;;;;;12.48;6.13;;;;;;;4.19;93.98;102692.81;4989314;28;20037;-75
2022/01/26 07:22:52;;;;;;;12.88;5.72;;;;;;;4.19;93.78;102685.69;4969802;28;20038;-75
2022/01/26 07:25:17;;;;;;;11.73;5.18;;;;;;;4.23;93.84;102692.34;5001313;28;20037;-76
2022/01/26 07:27:43;;;;;;;12.65;5.97;;;;;;;4.26;93.64;102693.84;5009371;28;20053;-75
2022/01/26 07:30:09;;;;;;;11.98;6.43;;;;;;;4.27;93.71;102692.00;4988911;28;20065;-76
2022/01/26 07:32:36;;;;;;;15.35;6.10;;;;;;;4.28;93.19;102683.91;4991175;28;20470;-76
2022/01/26 07:35:04;;;;;;;13.85;6.07;;;;;;;4.29;93.07;102690.03;5007610;28;20034;-76
2022/01/26 07:37:30;;;;;;;13.25;6.25;;;;;;;4.25;93.29;102692.19;5007371;28;20026;-76
2022/01/26 07:40:04;;;;;;;11.50;5.75;;;;;;;4.27;93.46;102687.53;4991349;28;20057;-76
2022/01/26 07:42:29;;;;;;;12.40;6.10;;;;;;;4.21;93.35;102694.31;4996158;28;20056;-76
2022/01/26 07:44:55;;;;;;;11.90;6.22;;;;;;;4.24;93.54;102694.00;4998599;28;20500;-76
2022/01/26 07:47:23;;;;;;;12.45;6.60;;;;;;;4.26;93.15;102699.16;4996857;28;20033;-76
2022/01/26 07:49:50;;;;;;;15.00;6.35;;;;;;;4.22;93.44;102693.34;4996471;28;20030;-76
2022/01/26 07:52:15;;;;;;;13.20;6.53;;;;;;;4.23;93.50;102691.50;5004694;28;20041;-76
2022/01/26 07:54:44;;;;;;;14.80;6.15;;;;;;;4.23;93.95;102692.34;4989308;28;20415;-76
2022/01/26 07:57:09;;;;;;;14.65;5.78;;;;;;;4.29;93.11;102701.47;4987334;28;20040;-75
2022/01/26 07:59:35;;;;;;;13.95;6.13;;;;;;;4.27;93.42;102703.47;4996502;28;20034;-75
2022/01/26 08:02:00;;;;;;;12.70;5.80;;;;;;;4.30;93.38;102708.44;4990550;28;20030;-75
2022/01/26 08:04:26;;;;;;;12.68;6.32;;;;;;;4.34;93.28;102707.16;4993122;28;20451;-75
2022/01/26 08:06:51;;;;;;;15.25;6.22;;;;;;;4.31;92.96;102712.78;4989116;28;20026;-75
2022/01/26 08:09:17;;;;;;;13.80;6.40;;;;;;;4.31;92.89;102711.94;5001224;28;20039;-75
2022/01/26 08:11:43;;;;;;;14.45;6.53;;;;;;;4.25;93.39;102710.75;5001376;28;20037;-75
2022/01/26 08:14:09;;;;;;;13.63;6.25;;;;;;;4.30;93.45;102708.44;4991094;28;20018;-76
2022/01/26 08:16:35;;;;;;;12.90;5.85;;;;;;;4.32;93.22;102709.16;4994087;28;20076;-75
2022/01/26 08:19:01;;;;;;;16.13;6.03;;;;;;;4.33;92.89;102713.47;4990333;28;20025;-75
2022/01/26 08:21:26;;;;;;;15.88;6.07;;;;;;;4.18;92.66;102707.09;4989778;28;20021;-76
2022/01/26 08:23:52;;;;;;;14.18;6.50;;;;;;;4.30;92.95;102713.75;4987940;28;20552;-75
2022/01/26 08:26:25;;;;;;;14.82;6.35;;;;;;;4.29;92.87;102711.25;5003013;28;20046;-75
2022/01/26 08:28:55;;;;;;;16.88;6.90;;;;;;;4.28;92.59;102713.09;4986179;28;20026;-75
2022/01/26 08:31:21;;;;;;;16.70;6.35;;;;;;;4.30;92.64;102712.91;4989950;28;20045;-75
2022/01/26 08:33:46;;;;;;;12.65;5.95;;;;;;;4.30;92.87;102699.66;5005486;28;20487;-75
2022/01/26 08:36:12;;;;;;;15.25;7.70;;;;;;;4.23;92.75;102702.94;4992437;28;20056;-76
2022/01/26 08:38:37;;;;;;;15.95;6.75;;;;;;;4.31;92.34;102710.13;5004325;28;20030;-75
2022/01/26 08:41:03;;;;;;;14.25;5.82;;;;;;;4.36;92.44;102696.38;5003369;28;20184;-76
2022/01/26 08:43:28;;;;;;;15.15;6.68;;;;;;;4.36;92.12;102696.38;4987954;28;20038;-76
2022/01/26 08:45:54;;;;;;;17.10;6.90;;;;;;;4.41;92.27;102694.91;5005813;28;20030;-75
2022/01/26 08:48:22;;;;;;;16.23;6.32;;;;;;;4.41;92.21;102680.81;4983149;28;20108;-76
2022/01/26 08:50:48;;;;;;;13.52;6.72;;;;;;;4.39;91.80;102678.31;4986361;28;20018;-76
2022/01/26 08:53:13;;;;;;;15.38;6.53;;;;;;;4.38;91.57;102687.28;5007600;28;20025;-76
2022/01/26 08:55:39;;;;;;;17.05;6.88;;;;;;;4.39;91.44;102680.97;4989557;28;20022;-76
2022/01/26 08:58:05;;;;;;;17.00;6.75;;;;;;;4.40;91.85;102689.75;5004361;28;20411;-76
2022/01/26 09:00:30;;;;;;;16.30;6.30;;;;;;;4.44;91.85;102686.63;5006592;28;20033;-76
2022/01/26 09:02:57;;;;;;;16.35;6.85;;;;;;;4.41;91.86;102689.59;4991322;28;20527;-76
2022/01/26 09:05:23;;;;;;;16.60;6.28;;;;;;;4.38;92.05;102695.22;5007131;28;20171;-76
2022/01/26 09:07:50;;;;;;;17.83;7.00;;;;;;;4.40;91.96;102706.50;5008921;28;20475;-75
2022/01/26 09:10:16;;;;;;;17.13;7.05;;;;;;;4.42;92.21;102712.50;5006663;28;20390;-76
2022/01/26 09:12:43;;;;;;;16.08;6.65;;;;;;;4.43;92.02;102698.22;5008380;28;20105;-75
2022/01/26 09:15:10;;;;;;;17.85;7.22;;;;;;;4.46;91.63;102699.72;5009124;28;20124;-75
2022/01/26 09:17:37;;;;;;;13.82;6.35;;;;;;;4.42;91.65;102704.53;5007021;28;20852;-76
2022/01/26 09:20:05;;;;;;;15.80;6.97;;;;;;;4.42;91.90;102695.75;4990225;28;20491;-76
2022/01/26 09:22:30;;;;;;;14.43;6.10;;;;;;;4.43;91.43;102697.41;4985565;28;20519;-76
2022/01/26 09:24:56;;;;;;;16.58;7.22;;;;;;;4.46;91.58;102689.94;4996748;28;20088;-76
2022/01/26 09:27:21;;;;;;;14.90;6.43;;;;;;;4.44;91.44;102683.13;5003725;28;20034;-76
2022/01/26 09:29:47;;;;;;;15.63;6.55;;;;;;;4.41;91.00;102678.97;5004122;28;20038;-75
2022/01/26 09:32:14;;;;;;;12.50;6.35;;;;;;;4.46;91.54;102681.97;5001760;28;20026;-76
2022/01/26 09:34:40;;;;;;;14.30;6.03;;;;;;;4.48;91.38;102692.44;5010369;28;20018;-76
2022/01/26 09:37:09;;;;;;;18.10;6.75;;;;;;;4.50;90.92;102695.78;5002151;28;21046;-76
2022/01/26 09:39:37;;;;;;;16.05;6.35;;;;;;;4.48;90.80;102701.22;4992195;28;20091;-76
2022/01/26 09:42:03;;;;;;;15.52;5.93;;;;;;;4.55;90.77;102693.47;5008780;28;20042;-76
2022/01/26 09:44:30;;;;;;;13.68;6.03;;;;;;;4.54;90.43;102700.59;5002582;28;20036;-76
2022/01/26 09:46:56;;;;;;;15.25;6.18;;;;;;;4.47;90.37;102694.25;5007964;28;20658;-76
2022/01/26 09:49:22;;;;;;;13.88;5.60;;;;;;;4.48;90.07;102705.69;4986950;28;20040;-76
2022/01/26 09:51:50;;;;;;;16.40;5.72;;;;;;;4.50;89.97;102706.41;4991910;28;20022;-76
2022/01/26 09:54:18;;;;;;;13.27;5.63;;;;;;;4.49;89.51;102710.06;5009569;28;20024;-76
2022/01/26 09:56:49;;;;;;;10.13;4.63;;;;;;;4.51;89.52;102708.91;4991614;28;20022;-76
2022/01/26 09:59:16;;;;;;;10.85;4.57;;;;;;;4.44;88.55;102715.81;4986598;28;20518;-76
2022/01/26 10:01:50;;;;;;;9.98;4.78;;;;;;;4.43;88.90;102708.84;4994103;28;20581;-76
2022/01/26 10:04:24;;;;;;;11.17;4.77;;;;;;;4.45;88.38;102716.66;4982718;28;20117;-76
2022/01/26 10:07:18;;;;;;;8.90;4.45;;;;;;;4.41;88.56;102702.88;4992752;28;20511;-76
2022/01/26 10:15:32;;;;;;;11.40;4.67;;;;;;;4.33;87.92;102713.47;4997639;28;20626;-76
2022/01/26 10:18:09;;;;;;;8.65;4.03;;;;;;;4.34;87.62;102712.47;5007063;28;20507;-76
2022/01/26 10:20:49;;;;;;;8.55;4.05;;;;;;;4.25;87.08;102710.75;4992212;28;20026;-75
2022/01/26 10:23:22;;;;;;;9.68;4.85;;;;;;;4.25;87.09;102710.75;4999045;28;20492;-76
2022/01/26 10:26:15;;;;;;;9.48;4.95;;;;;;;4.21;86.91;102712.91;4989849;28;20026;-76
2022/01/26 10:28:45;;;;;;;10.25;5.32;;;;;;;4.21;86.85;102720.84;5005811;28;20560;-76
2022/01/26 10:31:18;;;;;;;9.93;4.55;;;;;;;4.20;86.68;102728.97;5007332;28;20427;-76
2022/01/26 10:34:10;;;;;;;10.65;5.05;;;;;;;4.20;87.01;102723.66;4991415;28;20022;-76
2022/01/26 10:36:44;;;;;;;12.32;5.22;;;;;;;4.20;86.84;102739.59;4990471;28;20033;-75
2022/01/26 10:39:22;;;;;;;12.30;5.50;;;;;;;4.15;87.05;102733.94;4999571;28;20018;-76
2022/01/26 10:41:51;;;;;;;11.85;5.00;;;;;;;4.16;86.74;102722.31;4991414;28;20164;-77
2022/01/26 10:44:18;;;;;;;11.18;4.65;;;;;;;4.04;85.86;102712.97;5008898;28;20026;-76
2022/01/26 10:46:44;;;;;;;10.60;5.15;;;;;;;4.15;86.27;102721.50;5007984;28;20076;-76
2022/01/26 10:54:22;;;;;;;8.98;4.43;;;;;;;4.11;85.59;102724.59;5007929;28;20088;-76
2022/01/26 10:56:49;;;;;;;8.07;4.15;;;;;;;4.08;85.89;102717.78;4985200;28;20026;-75
2022/01/26 10:59:15;;;;;;;7.68;4.45;;;;;;;4.19;86.47;102729.97;5008271;28;20467;-76
2022/01/26 11:01:40;;;;;;;8.80;4.20;;;;;;;4.14;85.96;102726.97;5008131;28;20040;-76
2022/01/26 11:04:07;;;;;;;11.23;4.32;;;;;;;4.17;85.92;102729.28;4999919;28;20499;-76
2022/01/26 11:06:33;;;;;;;9.15;4.85;;;;;;;4.10;85.96;102725.59;4992490;28;20549;-76
2022/01/26 11:09:07;;;;;;;10.93;4.82;;;;;;;4.13;86.25;102727.94;5000469;28;20034;-76
2022/01/26 11:11:34;;;;;;;11.75;5.35;;;;;;;4.05;86.09;102720.75;5003310;28;20029;-76
2022/01/26 11:13:59;;;;;;;9.15;4.70;;;;;;;4.05;86.04;102726.06;4991326;28;20029;-75
2022/01/26 11:16:25;;;;;;;11.95;5.63;;;;;;;4.05;85.93;102710.16;4990533;28;20384;-76
2022/01/26 11:18:52;;;;;;;13.35;5.20;;;;;;;4.05;86.24;102702.19;5006721;28;20040;-76
2022/01/26 11:21:37;;;;;;;14.13;5.60;;;;;;;4.05;86.41;102704.03;5008292;28;20039;-76
2022/01/26 11:24:24;;;;;;;14.05;5.18;;;;;;;4.07;85.95;102702.88;5002612;28;20041;-76
2022/01/26 11:27:10;;;;;;;11.75;4.40;;;;;;;4.06;85.96;102692.41;4997500;28;20030;-76
2022/01/26 11:29:40;;;;;;;9.82;3.95;;;;;;;4.06;85.55;102700.38;4999148;28;20558;-75
2022/01/26 11:32:21;;;;;;;9.05;4.32;;;;;;;3.97;85.34;102696.84;5003799;28;20022;-76
2022/01/26 11:34:52;;;;;;;8.73;4.88;;;;;;;3.98;85.77;102690.56;4983943;28;20033;-75
2022/01/26 11:37:27;;;;;;;8.18;4.32;;;;;;;3.97;86.10;102690.72;4995137;28;20022;-76
2022/01/26 11:45:35;;;;;;;11.43;4.07;;;;;;;3.93;86.60;102677.75;5000237;28;20575;-75
2022/01/26 11:48:11;;;;;;;7.68;3.47;;;;;;;3.98;86.68;102671.16;4984606;28;20041;-75
2022/01/26 11:50:42;;;;;;;9.85;4.55;;;;;;;4.07;86.90;102665.72;4992897;28;20033;-75
2022/01/26 11:53:16;;;;;;;7.72;3.47;;;;;;;4.04;86.57;102663.41;4997657;28;20041;-75
2022/01/26 11:55:57;;;;;;;9.40;3.92;;;;;;;4.05;86.87;102658.91;4998194;28;20308;-75
2022/01/26 11:58:32;;;;;;;8.80;3.85;;;;;;;4.12;87.08;102657.28;4998263;28;20523;-75
2022/01/26 12:01:29;;;;;;;6.43;3.50;;;;;;;4.07;87.19;102633.06;4996460;28;20113;-75
2022/01/26 12:04:01;;;;;;;7.63;3.83;;;;;;;4.13;87.19;102638.59;4993692;28;20026;-75
2022/01/26 12:06:37;;;;;;;9.05;3.80;;;;;;;4.13;86.96;102630.63;4980770;28;20037;-75
2022/01/26 12:09:06;;;;;;;7.07;2.95;;;;;;;4.13;86.92;102630.63;4997870;28;20364;-75
2022/01/26 12:11:32;;;;;;;8.10;3.50;;;;;;;4.15;87.35;102623.34;4987177;28;20049;-76
2022/01/26 12:14:20;;;;;;;7.47;3.15;;;;;;;4.09;87.35;102610.69;4996607;28;20404;-75
2022/01/26 12:16:49;;;;;;;7.57;3.15;;;;;;;4.14;87.34;102604.94;4998594;28;20562;-75
2022/01/26 12:38:16;;;;;;;8.30;3.25;;;;;;;4.26;86.69;102595.66;4997588;28;20104;-75
2022/01/26 12:43:43;;;;;;;6.43;2.45;;;;;;;4.23;86.70;102575.59;5001211;28;20048;-75
2022/01/26 12:46:12;;;;;;;5.47;2.65;;;;;;;4.29;86.07;102571.44;4996728;28;20489;-75
2022/01/26 12:48:40;;;;;;;6.63;2.78;;;;;;;4.19;85.59;102568.13;5004015;28;20030;-76
2022/01/26 12:51:10;;;;;;;5.53;2.85;;;;;;;4.25;85.72;102578.91;5003611;28;20022;-76
2022/01/26 12:53:37;;;;;;;7.07;2.67;;;;;;;4.27;85.89;102584.06;5002900;28;20486;-75
2022/01/26 12:56:06;;;;;;;5.78;2.08;;;;;;;4.20;85.69;102594.50;4984253;28;20042;-75
2022/01/26 12:58:40;;;;;;;3.97;2.30;;;;;;;4.10;85.62;102590.28;4977023;28;20507;-75
2022/01/26 13:01:17;;;;;;;5.18;2.35;;;;;;;4.20;85.70;102577.75;5003048;28;20105;-75
2022/01/26 13:03:46;;;;;;;4.35;2.08;;;;;;;4.19;85.43;102578.75;4984283;28;20033;-75
2022/01/26 13:06:25;;;;;;;5.65;2.30;;;;;;;4.18;85.49;102579.72;4983887;28;20034;-75
2022/01/26 13:08:56;;;;;;;4.10;2.35;;;;;;;4.14;85.30;102562.47;4999419;28;20041;-75
2022/01/26 13:11:26;;;;;;;3.38;1.90;;;;;;;4.14;85.45;102554.53;4979373;28;20061;-75
2022/01/26 13:14:10;;;;;;;4.70;2.10;;;;;;;4.07;85.03;102548.19;4989736;28;20755;-75
2022/01/26 13:16:38;;;;;;;4.00;2.08;;;;;;;4.13;85.29;102547.53;4977110;28;20038;-75
2022/01/26 13:19:15;;;;;;;5.05;2.47;;;;;;;4.11;84.90;102539.72;4987336;28;20022;-75
2022/01/26 13:22:13;;;;;;;5.68;2.47;;;;;;;4.21;85.01;102539.59;5003412;28;20060;-75
2022/01/26 13:24:56;;;;;;;5.30;2.15;;;;;;;4.24;85.13;102531.31;4990268;28;20030;-75
2022/01/26 13:27:46;;;;;;;6.28;2.60;;;;;;;4.15;84.94;102519.88;4989309;28;20029;-74
2022/01/26 13:30:49;;;;;;;8.55;3.60;;;;;;;4.12;85.15;102519.34;5003151;28;20890;-75
2022/01/26 13:38:42;;;;;;;5.90;2.63;;;;;;;4.18;85.93;102508.09;4999247;28;20448;-74
2022/01/26 13:41:23;;;;;;;5.28;2.90;;;;;;;4.12;85.50;102506.06;5004636;28;20030;-75
2022/01/26 13:54:13;;;;;;;7.70;3.67;;;;;;;4.15;85.23;102476.59;5006344;28;20038;-75
2022/01/26 14:01:30;;;;;;;7.70;3.22;;;;;;;4.20;85.16;102468.97;5001074;28;20100;-75
2022/01/26 14:04:02;;;;;;;7.53;3.90;;;;;;;4.16;85.18;102462.34;4982387;28;20052;-75
2022/01/26 14:06:27;;;;;;;7.32;3.33;;;;;;;4.13;84.91;102467.94;5004414;28;20947;-75
2022/01/26 14:08:53;;;;;;;5.88;3.28;;;;;;;4.15;84.72;102466.00;4989847;28;20041;-76
2022/01/26 14:11:19;;;;;;;5.95;3.03;;;;;;;4.13;84.67;102473.25;4997624;28;20096;-75
2022/01/26 14:13:45;;;;;;;8.80;3.67;;;;;;;4.07;84.40;102472.09;5009469;28;20395;-75
2022/01/26 14:16:15;;;;;;;6.72;3.05;;;;;;;4.00;84.09;102468.44;5005144;28;20029;-75
2022/01/26 14:19:26;;;;;;;7.53;4.13;;;;;;;4.05;84.59;102474.06;5003564;28;20034;-75